createdAt,value
2022-10-22T00:03:56.315Z,61.48
2022-10-22T00:09:12.652Z,61.52
2022-10-22T00:11:42.909Z,61.36
2022-10-22T00:14:21.062Z,61.00
2022-10-22T00:16:50.652Z,60.60
2022-10-22T00:22:10.302Z,61.19
2022-10-22T00:24:40.343Z,60.83
2022-10-22T00:27:09.393Z,60.77
2022-10-22T00:32:25.854Z,61.01
2022-10-22T00:34:55.487Z,62.20
2022-10-22T00:40:10.441Z,61.28
2022-10-22T00:48:17.559Z,61.65
2022-10-22T00:53:47.911Z,61.28
2022-10-22T00:56:18.289Z,61.72
2022-10-22T00:58:48.990Z,61.37
2022-10-22T01:01:24.869Z,61.59
2022-10-22T01:06:39.020Z,61.52
2022-10-22T01:12:09.772Z,61.26
2022-10-22T01:18:06.947Z,61.27
2022-10-22T01:20:47.733Z,61.63
2022-10-22T01:23:17.622Z,61.11
2022-10-22T01:26:18.837Z,61.66
2022-10-22T01:28:59.012Z,61.57
2022-10-22T01:34:20.100Z,61.55
2022-10-22T01:36:54.774Z,61.42
2022-10-22T01:39:28.418Z,61.32
2022-10-22T01:44:46.682Z,61.55
2022-10-22T01:47:16.049Z,61.17
2022-10-22T01:53:21.914Z,61.54
2022-10-22T01:56:15.197Z,61.43
2022-10-22T01:58:42.759Z,60.91
2022-10-22T02:01:35.938Z,61.13
2022-10-22T02:04:17.101Z,61.05
2022-10-22T02:06:48.063Z,61.72
2022-10-22T02:15:29.884Z,61.62
2022-10-22T02:20:44.152Z,62.08
2022-10-22T02:23:11.926Z,61.55
2022-10-22T02:25:44.547Z,61.71
2022-10-22T02:28:23.507Z,61.97
2022-10-22T02:39:19.258Z,61.37
2022-10-22T02:41:46.620Z,61.68
2022-10-22T02:44:13.785Z,61.65
2022-10-22T02:46:43.246Z,61.21
2022-10-22T02:49:10.245Z,61.05
2022-10-22T02:51:37.235Z,61.40
2022-10-22T02:54:09.510Z,60.90
2022-10-22T02:59:21.183Z,61.13
2022-10-22T03:01:48.277Z,61.29
2022-10-22T03:07:02.560Z,60.75
2022-10-22T03:12:16.780Z,61.32
2022-10-22T03:14:43.886Z,60.76
2022-10-22T03:17:12.943Z,60.56
2022-10-22T03:22:29.845Z,60.72
2022-10-22T03:25:03.121Z,60.91
2022-10-22T03:33:03.449Z,60.41
2022-10-22T03:38:48.604Z,60.74
2022-10-22T03:44:02.116Z,60.22
2022-10-22T03:49:17.779Z,60.44
2022-10-22T03:51:44.686Z,60.25
2022-10-22T03:54:17.187Z,60.19
2022-10-22T03:56:44.162Z,60.28
2022-10-22T03:59:15.121Z,60.44
2022-10-22T04:01:42.236Z,59.88
2022-10-22T04:04:14.192Z,60.40
2022-10-22T04:12:18.463Z,60.14
2022-10-22T04:14:45.476Z,60.31
2022-10-22T04:22:43.400Z,60.50
2022-10-22T04:27:56.897Z,60.42
2022-10-22T04:30:23.884Z,60.50
2022-10-22T04:32:50.834Z,60.61
2022-10-22T04:35:22.601Z,61.08
2022-10-22T04:37:56.992Z,60.94
2022-10-22T04:40:24.129Z,60.71
2022-10-22T04:42:53.210Z,60.28
2022-10-22T04:45:22.832Z,61.05
2022-10-22T04:47:52.015Z,60.97
2022-10-22T04:53:10.534Z,61.77
2022-10-22T04:55:37.559Z,60.99
2022-10-22T05:06:21.059Z,61.14
2022-10-22T05:11:41.689Z,61.11
2022-10-22T05:14:10.637Z,61.10
2022-10-22T05:16:38.711Z,60.83
2022-10-22T05:19:09.059Z,60.85
2022-10-22T05:21:40.991Z,60.41
2022-10-22T05:24:10.816Z,60.56
2022-10-22T05:26:37.758Z,61.23
2022-10-22T05:29:04.799Z,61.05
2022-10-22T05:31:31.817Z,60.54
2022-10-22T05:33:58.856Z,60.40
2022-10-22T05:36:28.436Z,60.09
2022-10-22T05:38:55.479Z,60.40
2022-10-22T05:41:24.411Z,59.61
2022-10-22T05:43:51.730Z,59.67
2022-10-22T05:46:22.848Z,59.54
2022-10-22T05:48:55.336Z,59.34
2022-10-22T05:51:25.690Z,58.80
2022-10-22T05:53:57.822Z,58.98
2022-10-22T05:56:26.639Z,59.23
2022-10-22T05:58:53.675Z,58.90
2022-10-22T06:01:30.364Z,58.90
2022-10-22T06:04:01.951Z,58.92
2022-10-22T06:06:39.302Z,58.84
2022-10-22T06:09:22.449Z,59.33
2022-10-22T06:11:53.289Z,58.55
2022-10-22T06:14:21.174Z,59.06
2022-10-22T06:16:48.958Z,58.08
2022-10-22T06:19:18.807Z,58.31
2022-10-22T06:21:49.070Z,57.88
2022-10-22T06:24:21.246Z,58.61
2022-10-22T06:26:54.028Z,58.36
2022-10-22T06:29:23.378Z,58.33
2022-10-22T06:31:51.982Z,58.17
2022-10-22T06:34:19.177Z,58.21
2022-10-22T06:36:49.858Z,58.38
2022-10-22T06:39:19.571Z,58.02
2022-10-22T06:41:49.549Z,57.82
2022-10-22T06:44:19.366Z,57.59
2022-10-22T06:46:54.713Z,58.05
2022-10-22T06:49:22.197Z,57.63
2022-10-22T06:51:53.333Z,57.81
2022-10-22T06:54:23.386Z,57.47
2022-10-22T06:56:52.709Z,56.84
2022-10-22T06:59:20.726Z,57.07
2022-10-22T07:01:47.813Z,56.96
2022-10-22T07:04:14.939Z,56.20
2022-10-22T07:06:42.033Z,56.32
2022-10-22T07:09:09.260Z,55.47
2022-10-22T07:11:42.458Z,55.40
2022-10-22T07:14:20.063Z,55.06
2022-10-22T07:16:47.067Z,54.57
2022-10-22T07:19:17.259Z,53.59
2022-10-22T07:21:44.456Z,54.11
2022-10-22T07:24:13.796Z,54.62
2022-10-22T07:26:45.443Z,54.34
2022-10-22T07:29:15.577Z,54.52
2022-10-22T07:31:45.947Z,54.78
2022-10-22T07:34:13.150Z,54.26
2022-10-22T07:36:40.180Z,54.58
2022-10-22T07:39:09.439Z,54.23
2022-10-22T07:41:36.504Z,54.09
2022-10-22T07:44:05.894Z,54.15
2022-10-22T07:46:32.998Z,53.48
2022-10-22T07:48:59.978Z,53.22
2022-10-22T07:51:29.455Z,52.92
2022-10-22T07:54:00.054Z,52.90
2022-10-22T07:56:27.019Z,53.26
2022-10-22T07:58:54.070Z,53.57
2022-10-22T08:01:23.554Z,53.27
2022-10-22T08:03:59.817Z,53.99
2022-10-22T08:06:26.753Z,53.45
2022-10-22T08:08:53.722Z,53.29
2022-10-22T08:11:22.925Z,53.07
2022-10-22T08:13:49.930Z,52.47
2022-10-22T08:16:17.093Z,52.42
2022-10-22T08:18:44.406Z,52.65
2022-10-22T08:21:15.705Z,53.14
2022-10-22T08:23:45.030Z,52.81
2022-10-22T08:26:12.262Z,52.42
2022-10-22T08:28:39.474Z,52.22
2022-10-22T08:31:07.959Z,52.39
2022-10-22T08:33:38.924Z,51.61
2022-10-22T08:36:11.688Z,53.09
2022-10-22T08:38:40.989Z,52.24
2022-10-22T08:41:24.598Z,52.82
2022-10-22T08:44:13.076Z,53.44
2022-10-22T08:46:43.049Z,53.95
2022-10-22T08:49:20.660Z,54.19
2022-10-22T08:51:53.460Z,54.05
2022-10-22T08:54:42.207Z,54.45
2022-10-22T08:57:09.134Z,54.35
2022-10-22T09:00:32.090Z,53.98
2022-10-22T09:03:32.986Z,53.46
2022-10-22T09:06:11.834Z,53.62
2022-10-22T09:08:42.176Z,53.52
2022-10-22T09:11:27.072Z,53.83
2022-10-22T09:13:57.378Z,54.12
2022-10-22T09:16:36.608Z,54.07
2022-10-22T09:19:03.615Z,53.45
2022-10-22T09:22:00.444Z,53.32
2022-10-22T09:24:42.191Z,53.35
2022-10-22T09:27:14.313Z,54.72
2022-10-22T09:29:41.749Z,54.62
2022-10-22T09:32:10.656Z,55.32
2022-10-22T09:34:40.854Z,54.18
2022-10-22T09:37:10.117Z,54.82
2022-10-22T09:39:45.219Z,54.68
2022-10-22T09:42:19.909Z,54.86
2022-10-22T09:45:50.768Z,54.51
2022-10-22T09:48:26.651Z,55.11
2022-10-22T09:51:25.661Z,54.47
2022-10-22T09:53:59.062Z,54.78
2022-10-22T09:56:35.999Z,54.99
2022-10-22T09:59:14.244Z,56.48
2022-10-22T10:01:41.624Z,55.75
2022-10-22T10:04:17.608Z,55.75
2022-10-22T10:06:45.107Z,55.46
2022-10-22T10:10:05.426Z,55.10
2022-10-22T10:12:48.231Z,55.52
2022-10-22T10:15:30.835Z,54.38
2022-10-22T10:18:24.108Z,54.81
2022-10-22T10:21:29.601Z,54.67
2022-10-22T10:24:08.396Z,55.43
2022-10-22T10:27:02.958Z,54.70
2022-10-22T10:33:06.432Z,54.40
2022-10-22T10:36:14.178Z,54.93
2022-10-22T10:39:18.878Z,54.33
2022-10-22T10:42:22.467Z,54.14
2022-10-22T10:44:58.071Z,53.92
2022-10-22T10:48:07.087Z,53.98
2022-10-22T10:51:12.523Z,54.71
2022-10-22T10:54:09.917Z,54.77
2022-10-22T10:57:51.228Z,54.73
2022-10-22T11:00:42.116Z,54.00
2022-10-22T11:03:37.166Z,54.56
2022-10-22T11:06:47.892Z,54.71
2022-10-22T11:09:45.320Z,54.42
2022-10-22T11:12:29.282Z,54.89
2022-10-22T11:15:32.494Z,54.55
2022-10-22T11:18:12.880Z,54.86
2022-10-22T11:21:09.337Z,54.55
2022-10-22T11:23:43.545Z,54.55
2022-10-22T11:26:19.020Z,54.79
2022-10-22T11:28:53.720Z,54.89
2022-10-22T11:31:23.908Z,53.98
2022-10-22T11:34:28.588Z,53.98
2022-10-22T11:36:58.743Z,53.79
2022-10-22T11:40:05.977Z,53.89
2022-10-22T11:42:46.833Z,54.29
2022-10-22T11:45:13.657Z,53.66
2022-10-22T11:47:59.475Z,53.55
2022-10-22T11:50:41.751Z,53.72
2022-10-22T11:53:14.705Z,54.13
2022-10-22T11:55:56.274Z,53.92
2022-10-22T11:58:52.142Z,53.82
2022-10-22T12:01:24.811Z,53.92
2022-10-22T12:03:57.909Z,53.79
2022-10-22T12:06:47.806Z,54.04
2022-10-22T12:09:16.210Z,54.02
2022-10-22T12:11:52.179Z,54.08
2022-10-22T12:14:32.374Z,54.29
2022-10-22T12:17:13.595Z,54.21
2022-10-22T12:20:04.721Z,54.73
2022-10-22T12:22:37.926Z,54.54
2022-10-22T12:25:22.352Z,54.70
2022-10-22T12:27:57.382Z,54.15
2022-10-22T12:30:27.246Z,54.23
2022-10-22T12:33:01.089Z,53.95
2022-10-22T12:35:36.064Z,54.02
2022-10-22T12:38:19.403Z,54.48
2022-10-22T12:40:50.779Z,54.55
2022-10-22T12:43:24.528Z,54.48
2022-10-22T12:46:00.282Z,55.08
2022-10-22T12:48:30.992Z,54.41
2022-10-22T12:51:08.259Z,54.73
2022-10-22T12:53:44.065Z,55.17
2022-10-22T12:56:17.933Z,55.44
2022-10-22T12:59:00.239Z,56.36
2022-10-22T13:01:29.290Z,56.47
2022-10-22T13:04:29.325Z,57.20
2022-10-22T13:07:18.355Z,57.71
2022-10-22T13:10:02.419Z,58.11
2022-10-22T13:12:36.870Z,58.09
2022-10-22T13:15:37.848Z,57.88
2022-10-22T13:18:16.864Z,58.77
2022-10-22T13:20:58.987Z,57.88
2022-10-22T13:23:30.297Z,59.12
2022-10-22T13:26:04.205Z,58.67
2022-10-22T13:28:32.827Z,59.06
2022-10-22T13:31:09.815Z,58.62
2022-10-22T13:33:43.856Z,58.64
2022-10-22T13:36:16.476Z,57.36
2022-10-22T13:38:48.333Z,58.03
2022-10-22T13:44:07.069Z,57.21
2022-10-22T13:46:40.593Z,57.71
2022-10-22T13:49:23.578Z,58.05
2022-10-22T13:51:56.191Z,58.09
2022-10-22T13:54:27.035Z,58.77
2022-10-22T13:56:56.340Z,59.67
2022-10-22T13:59:26.019Z,60.69
2022-10-22T14:01:54.069Z,61.64
2022-10-22T14:04:22.292Z,62.40
2022-10-22T14:06:49.430Z,61.71
2022-10-22T14:09:16.960Z,62.79
2022-10-22T14:11:46.374Z,61.29
2022-10-22T14:14:19.652Z,60.67
2022-10-22T14:16:55.359Z,60.17
2022-10-22T14:23:55.288Z,61.41
2022-10-22T14:26:31.537Z,61.51
2022-10-22T14:29:15.182Z,63.07
2022-10-22T14:31:44.569Z,61.91
2022-10-22T14:34:16.963Z,62.62
2022-10-22T14:36:47.291Z,61.56
2022-10-22T14:39:18.506Z,62.65
2022-10-22T14:41:48.501Z,62.21
2022-10-22T14:44:15.622Z,63.53
2022-10-22T14:46:44.557Z,62.52
2022-10-22T14:49:16.444Z,62.09
2022-10-22T14:51:46.166Z,62.66
2022-10-22T14:54:35.424Z,63.07
2022-10-22T14:57:20.621Z,64.13
2022-10-22T14:59:54.922Z,62.68
2022-10-22T15:02:22.101Z,63.09
2022-10-22T15:04:49.561Z,63.17
2022-10-22T15:07:18.944Z,63.48
2022-10-22T15:09:46.620Z,63.85
2022-10-22T15:12:15.916Z,63.52
2022-10-22T15:14:45.279Z,64.76
2022-10-22T15:17:14.972Z,63.97
2022-10-22T15:19:43.961Z,65.03
2022-10-22T15:22:23.680Z,64.54
2022-10-22T15:24:52.436Z,64.62
2022-10-22T15:30:26.955Z,64.87
2022-10-22T15:33:03.299Z,63.82
2022-10-22T15:35:30.660Z,63.31
2022-10-22T15:37:57.793Z,63.05
2022-10-22T15:40:24.656Z,64.02
2022-10-22T15:42:55.167Z,63.96
2022-10-22T15:45:29.999Z,63.77
2022-10-22T15:47:59.448Z,63.39
2022-10-22T15:50:32.215Z,63.45
2022-10-22T15:53:01.358Z,64.16
2022-10-22T15:55:30.966Z,64.39
2022-10-22T15:58:00.594Z,63.72
2022-10-22T16:00:30.539Z,63.77
2022-10-22T16:02:57.576Z,64.22
2022-10-22T16:05:24.677Z,63.64
2022-10-22T16:07:55.801Z,64.36
2022-10-22T16:10:29.113Z,63.77
2022-10-22T16:12:58.990Z,63.16
2022-10-22T16:15:25.921Z,63.53
2022-10-22T16:17:53.273Z,62.34
2022-10-22T16:20:22.921Z,63.75
2022-10-22T16:22:50.438Z,62.74
2022-10-22T16:25:17.522Z,62.80
2022-10-22T16:27:46.645Z,62.57
2022-10-22T16:30:14.734Z,63.84
2022-10-22T16:32:41.854Z,63.68
2022-10-22T16:35:09.326Z,62.44
2022-10-22T16:37:36.280Z,63.79
2022-10-22T16:40:07.404Z,63.54
2022-10-22T16:42:38.057Z,63.44
2022-10-22T16:45:05.760Z,62.86
2022-10-22T16:47:32.962Z,62.95
2022-10-22T16:50:01.031Z,62.12
2022-10-22T16:52:30.952Z,62.57
2022-10-22T16:54:58.512Z,63.16
2022-10-22T16:57:27.816Z,62.86
2022-10-22T17:04:24.158Z,62.86
2022-10-22T17:06:53.656Z,62.83
2022-10-22T17:09:20.924Z,62.59
2022-10-22T17:11:50.081Z,62.86
2022-10-22T17:14:17.102Z,62.90
2022-10-22T17:16:45.056Z,63.31
2022-10-22T17:19:16.042Z,63.38
2022-10-22T17:21:49.560Z,62.90
2022-10-22T17:24:21.203Z,63.12
2022-10-22T17:26:48.699Z,64.45
2022-10-22T17:29:18.471Z,63.16
2022-10-22T17:31:47.933Z,63.88
2022-10-22T17:34:18.302Z,63.04
2022-10-22T17:36:45.249Z,63.05
2022-10-22T17:39:18.022Z,62.88
2022-10-22T17:41:46.084Z,63.66
2022-10-22T17:44:20.700Z,63.48
2022-10-22T17:46:49.924Z,62.81
2022-10-22T17:49:34.738Z,62.84
2022-10-22T17:52:02.162Z,63.02
2022-10-22T17:54:29.407Z,63.76
2022-10-22T17:56:56.313Z,63.14
2022-10-22T17:59:23.265Z,63.61
2022-10-22T18:01:50.543Z,63.66
2022-10-22T18:04:22.068Z,63.42
2022-10-22T18:06:49.694Z,63.68
2022-10-22T18:10:13.389Z,63.07
2022-10-22T18:12:40.549Z,63.10
2022-10-22T18:15:10.582Z,62.75
2022-10-22T18:17:41.532Z,63.22
2022-10-22T18:20:09.356Z,62.58
2022-10-22T18:22:36.354Z,62.96
2022-10-22T18:25:05.585Z,62.14
2022-10-22T18:27:35.708Z,62.46
2022-10-22T18:30:05.620Z,62.21
2022-10-22T18:32:34.348Z,62.46
2022-10-22T18:35:03.663Z,62.59
2022-10-22T18:37:39.661Z,62.25
2022-10-22T18:40:08.803Z,63.22
2022-10-22T18:42:39.816Z,62.28
2022-10-22T18:45:07.625Z,61.51
2022-10-22T18:47:42.857Z,62.01
2022-10-22T18:50:10.180Z,61.67
2022-10-22T18:52:39.631Z,62.14
2022-10-22T18:55:07.178Z,62.00
2022-10-22T18:57:34.312Z,62.23
2022-10-22T19:00:01.425Z,61.38
2022-10-22T19:02:29.886Z,62.01
2022-10-22T19:04:56.910Z,62.08
2022-10-22T19:07:23.839Z,61.22
2022-10-22T19:09:50.755Z,61.86
2022-10-22T19:12:21.706Z,61.67
2022-10-22T19:14:55.953Z,61.98
2022-10-22T19:17:30.752Z,61.51
2022-10-22T19:19:57.572Z,61.22
2022-10-22T19:22:24.565Z,61.69
2022-10-22T19:24:52.101Z,62.34
2022-10-22T19:27:19.841Z,61.95
2022-10-22T19:29:47.148Z,61.61
2022-10-22T19:32:20.167Z,61.87
2022-10-22T19:34:52.437Z,61.99
2022-10-22T19:37:30.255Z,62.09
2022-10-22T19:39:57.439Z,61.37
2022-10-22T19:42:24.507Z,62.10
2022-10-22T19:44:56.032Z,61.57
2022-10-22T19:47:28.135Z,62.00
2022-10-22T19:50:00.512Z,62.01
2022-10-22T19:52:28.845Z,61.35
2022-10-22T19:54:55.960Z,61.51
2022-10-22T19:57:33.955Z,62.21
2022-10-22T20:00:01.104Z,62.05
2022-10-22T20:02:28.759Z,61.86
2022-10-22T20:04:57.866Z,61.19
2022-10-22T20:07:29.406Z,61.37
2022-10-22T20:10:01.572Z,61.37
2022-10-22T20:12:31.195Z,61.50
2022-10-22T20:15:03.140Z,62.19
2022-10-22T20:17:36.335Z,61.74
2022-10-22T20:20:08.437Z,62.44
2022-10-22T20:22:43.364Z,61.74
2022-10-22T20:25:15.128Z,61.55
2022-10-22T20:27:42.572Z,60.78
2022-10-22T20:30:19.611Z,61.68
2022-10-22T20:32:55.393Z,61.27
2022-10-22T20:35:23.033Z,61.64
2022-10-22T20:37:50.181Z,61.41
2022-10-22T20:40:20.300Z,61.98
2022-10-22T20:42:50.497Z,61.88
2022-10-22T20:45:20.784Z,62.14
2022-10-22T20:47:51.734Z,61.17
2022-10-22T20:50:32.309Z,60.83
2022-10-22T20:52:59.800Z,61.65
2022-10-22T20:55:29.904Z,61.12
2022-10-22T20:57:59.325Z,61.55
2022-10-22T21:00:27.329Z,61.11
2022-10-22T21:03:01.852Z,62.14
2022-10-22T21:05:28.937Z,61.76
2022-10-22T21:07:55.873Z,61.50
2022-10-22T21:10:22.728Z,61.86
2022-10-22T21:12:49.692Z,61.71
2022-10-22T21:15:16.802Z,60.74
2022-10-22T21:17:46.688Z,61.09
2022-10-22T21:20:13.750Z,61.39
2022-10-22T21:22:41.161Z,61.74
2022-10-22T21:25:12.085Z,61.39
2022-10-22T21:27:39.356Z,61.24
2022-10-22T21:30:12.095Z,61.19
2022-10-22T21:32:44.723Z,60.64
2022-10-22T21:35:14.786Z,60.38
2022-10-22T21:37:42.013Z,61.06
2022-10-22T21:40:15.748Z,60.68
2022-10-22T21:42:42.965Z,61.64
2022-10-22T21:45:17.517Z,61.86
2022-10-22T21:47:53.308Z,60.50
2022-10-22T21:50:20.843Z,60.72
2022-10-22T21:53:01.065Z,59.76
2022-10-22T21:55:35.203Z,60.00
2022-10-22T21:58:05.302Z,60.13
2022-10-22T22:00:33.264Z,59.83
2022-10-22T22:03:00.930Z,60.15
2022-10-22T22:05:30.315Z,60.74
2022-10-22T22:08:01.943Z,60.62
2022-10-22T22:10:31.077Z,61.07
2022-10-22T22:13:07.036Z,60.25
2022-10-22T22:15:42.401Z,60.35
2022-10-22T22:18:09.606Z,59.96
2022-10-22T22:20:37.182Z,60.53
2022-10-22T22:23:04.455Z,60.21
2022-10-22T22:25:31.772Z,59.86
2022-10-22T22:28:01.350Z,59.56
2022-10-22T22:30:28.640Z,59.41
2022-10-22T22:33:03.750Z,59.65
2022-10-22T22:35:31.170Z,59.29
2022-10-22T22:37:59.148Z,59.30
2022-10-22T22:40:27.434Z,59.41
2022-10-22T22:42:58.989Z,59.00
2022-10-22T22:45:26.221Z,58.72
2022-10-22T22:47:53.428Z,59.07
2022-10-22T22:50:23.012Z,59.75
2022-10-22T22:52:52.371Z,58.84
2022-10-22T22:55:24.727Z,59.30
2022-10-22T22:57:51.842Z,58.98
2022-10-22T23:00:26.609Z,59.70
2022-10-22T23:02:56.704Z,59.38
2022-10-22T23:05:23.648Z,58.87
2022-10-22T23:07:50.651Z,59.17
2022-10-22T23:10:17.528Z,59.17
2022-10-22T23:12:44.794Z,59.09
2022-10-22T23:15:11.970Z,59.36
2022-10-22T23:17:43.690Z,59.72
2022-10-22T23:20:13.549Z,59.22
2022-10-22T23:22:40.742Z,59.33
2022-10-22T23:25:10.253Z,59.49
2022-10-22T23:27:37.079Z,59.63
2022-10-22T23:30:07.081Z,59.52
2022-10-22T23:32:37.302Z,59.24
2022-10-22T23:35:10.356Z,59.05
2022-10-22T23:37:44.537Z,58.86
2022-10-22T23:40:19.758Z,59.28
2022-10-22T23:42:54.111Z,58.88
2022-10-22T23:45:21.065Z,58.77
2022-10-22T23:47:48.023Z,59.31
2022-10-22T23:50:15.078Z,59.43
2022-10-22T23:52:45.785Z,59.90
2022-10-22T23:55:12.941Z,59.42
2022-10-22T23:57:39.944Z,59.81
